Time;durP1;ratioP1;P1;durP2;ratioP2;P2;SDS_P1;SDS_P2;PMS_P1;PMS_P2;Temp;Humidity;BMP_temperature;BMP_pressure;BME280_temperature;BME280_humidity;BME280_pressure;Samples;Min_cycle;Max_cycle;Signal;HPM_P1;HPM_P2
2021/05/01 00:01:08;;;;;;;25.23;19.58;;;4.90;81.40;;;;;;5040396;28;20037;-76
2021/05/01 00:03:34;;;;;;;28.08;21.38;;;4.80;81.20;;;;;;5067414;28;20032;-75
2021/05/01 00:06:00;;;;;;;29.75;23.33;;;4.80;81.30;;;;;;5058782;28;20442;-76
2021/05/01 00:08:29;;;;;;;29.05;23.17;;;4.70;81.40;;;;;;5054181;28;20460;-76
2021/05/01 00:11:01;;;;;;;30.85;25.40;;;4.70;81.30;;;;;;5060350;28;20053;-75
2021/05/01 00:13:28;;;;;;;31.73;24.48;;;4.60;81.50;;;;;;5063648;28;20094;-78
2021/05/01 00:15:54;;;;;;;32.97;25.88;;;4.60;81.70;;;;;;5064090;28;20036;-76
2021/05/01 00:18:19;;;;;;;28.60;25.02;;;4.60;81.90;;;;;;5057202;28;20037;-77
2021/05/01 00:20:46;;;;;;;30.60;26.02;;;4.60;81.90;;;;;;5062897;28;20037;-77
2021/05/01 00:23:12;;;;;;;31.83;25.50;;;4.50;82.10;;;;;;5059066;28;20041;-78
2021/05/01 00:25:38;;;;;;;30.80;25.90;;;4.50;82.00;;;;;;5051535;28;20508;-77
2021/05/01 00:28:03;;;;;;;29.00;24.77;;;4.50;82.20;;;;;;5059137;28;20668;-75
2021/05/01 00:30:30;;;;;;;30.17;24.30;;;4.40;82.30;;;;;;5061010;28;20040;-77
2021/05/01 00:32:57;;;;;;;30.58;24.75;;;4.40;81.70;;;;;;5061298;28;20116;-76
2021/05/01 00:35:22;;;;;;;34.42;25.38;;;4.30;81.30;;;;;;5063280;28;20037;-75
2021/05/01 00:37:48;;;;;;;34.42;26.70;;;4.30;81.60;;;;;;5055836;28;20028;-76
2021/05/01 00:40:14;;;;;;;29.30;24.55;;;4.20;81.90;;;;;;5062905;28;20046;-77
2021/05/01 00:42:40;;;;;;;32.20;25.00;;;4.20;82.00;;;;;;5061816;28;20050;-75
2021/05/01 00:45:06;;;;;;;30.50;25.35;;;4.20;82.00;;;;;;5062108;28;20484;-76
2021/05/01 00:47:32;;;;;;;32.03;24.65;;;4.20;82.10;;;;;;5064642;28;20039;-77
2021/05/01 00:49:58;;;;;;;29.63;25.48;;;4.20;82.10;;;;;;5061317;28;20404;-82
2021/05/01 00:52:24;;;;;;;31.48;24.80;;;4.20;82.20;;;;;;5057143;28;20071;-77
2021/05/01 00:54:49;;;;;;;33.15;25.20;;;4.10;82.20;;;;;;5050572;28;20025;-77
2021/05/01 00:57:15;;;;;;;29.13;24.75;;;4.10;82.30;;;;;;5041372;28;20650;-76
2021/05/01 00:59:41;;;;;;;31.77;24.73;;;4.10;82.30;;;;;;5043853;28;20033;-77
2021/05/01 01:02:07;;;;;;;29.02;25.23;;;4.10;82.30;;;;;;5048954;28;20040;-77
2021/05/01 01:04:33;;;;;;;30.25;25.02;;;4.10;82.20;;;;;;5043798;28;20400;-78
2021/05/01 01:06:58;;;;;;;34.50;25.45;;;4.10;82.10;;;;;;5052031;28;20041;-76
2021/05/01 01:09:24;;;;;;;31.30;26.33;;;4.10;82.10;;;;;;5062826;28;20044;-81
2021/05/01 01:11:50;;;;;;;34.33;26.40;;;4.00;82.20;;;;;;5062134;28;20037;-76
2021/05/01 01:14:16;;;;;;;31.60;26.05;;;4.00;82.30;;;;;;5064285;28;20423;-76
2021/05/01 01:16:45;;;;;;;32.10;24.98;;;4.10;82.30;;;;;;5062292;28;20033;-74
2021/05/01 01:19:14;;;;;;;29.30;24.80;;;4.00;82.50;;;;;;5049264;28;20400;-75
2021/05/01 01:21:45;;;;;;;30.33;25.13;;;3.90;82.60;;;;;;5043027;28;20036;-75
2021/05/01 01:24:12;;;;;;;29.13;25.05;;;3.90;82.80;;;;;;5050488;28;20376;-74
2021/05/01 01:26:39;;;;;;;30.00;25.20;;;3.90;82.80;;;;;;5045532;28;20034;-75
2021/05/01 01:29:06;;;;;;;28.67;23.50;;;3.90;82.90;;;;;;5039010;28;20030;-75
2021/05/01 01:31:32;;;;;;;32.22;23.75;;;3.90;82.80;;;;;;5048749;28;20510;-76
2021/05/01 01:33:59;;;;;;;29.23;23.23;;;3.90;82.80;;;;;;5047824;28;20056;-75
2021/05/01 01:36:25;;;;;;;28.92;24.40;;;3.90;82.60;;;;;;5040732;28;20041;-76
2021/05/01 01:38:51;;;;;;;31.20;23.48;;;3.90;82.40;;;;;;5047355;28;20033;-76
2021/05/01 01:41:16;;;;;;;25.58;22.77;;;3.80;82.30;;;;;;5061360;28;20567;-76
2021/05/01 01:43:42;;;;;;;28.05;22.15;;;3.80;82.30;;;;;;5056057;28;20087;-76
2021/05/01 01:46:08;;;;;;;26.10;21.98;;;3.80;82.30;;;;;;5044896;28;20025;-75
2021/05/01 01:48:34;;;;;;;28.42;22.67;;;3.70;82.20;;;;;;5061989;28;20438;-74
2021/05/01 01:50:59;;;;;;;26.30;22.95;;;3.70;82.30;;;;;;5065233;28;20098;-81
2021/05/01 01:53:25;;;;;;;29.05;22.45;;;3.70;82.50;;;;;;5059801;28;20102;-76
2021/05/01 01:55:51;;;;;;;28.83;22.73;;;3.70;82.60;;;;;;5065920;28;20032;-75
2021/05/01 01:58:20;;;;;;;27.67;23.60;;;3.70;82.60;;;;;;5063779;28;20531;-74
2021/05/01 02:00:48;;;;;;;29.40;23.73;;;3.70;82.50;;;;;;5065904;28;20059;-74
2021/05/01 02:03:14;;;;;;;28.42;23.80;;;3.60;82.60;;;;;;5058796;28;20037;-76
2021/05/01 02:05:41;;;;;;;27.85;23.50;;;3.60;82.90;;;;;;5067721;28;20035;-75
2021/05/01 02:08:07;;;;;;;26.50;21.83;;;3.50;82.90;;;;;;5056536;28;20387;-76
2021/05/01 02:10:33;;;;;;;26.77;22.42;;;3.60;83.00;;;;;;5062677;28;20473;-77
2021/05/01 02:12:59;;;;;;;26.83;22.67;;;3.60;83.00;;;;;;5061879;28;20033;-79
2021/05/01 02:15:25;;;;;;;25.63;22.48;;;3.60;83.10;;;;;;5064819;28;20486;-74
2021/05/01 02:17:55;;;;;;;26.73;22.60;;;3.50;83.10;;;;;;5064107;28;20062;-76
2021/05/01 02:20:23;;;;;;;29.10;24.00;;;3.60;83.00;;;;;;5057338;28;20882;-76
2021/05/01 02:22:50;;;;;;;32.13;24.25;;;3.60;83.10;;;;;;5060076;28;20047;-77
2021/05/01 02:25:15;;;;;;;30.67;24.15;;;3.60;83.10;;;;;;5057958;28;20120;-77
2021/05/01 02:27:41;;;;;;;28.25;23.50;;;3.50;83.10;;;;;;5065292;28;20713;-75
2021/05/01 02:30:10;;;;;;;26.48;22.60;;;3.50;82.90;;;;;;5065064;28;20048;-76
2021/05/01 02:32:36;;;;;;;27.50;22.50;;;3.50;83.00;;;;;;5060338;28;20036;-77
2021/05/01 02:35:04;;;;;;;29.35;23.13;;;3.50;82.80;;;;;;5069393;28;20114;-77
2021/05/01 02:37:30;;;;;;;30.38;23.58;;;3.40;82.60;;;;;;5063736;28;20033;-75
2021/05/01 02:39:55;;;;;;;29.20;23.40;;;3.40;82.70;;;;;;5057979;28;20041;-75
2021/05/01 02:42:21;;;;;;;25.60;22.05;;;3.40;82.50;;;;;;5065351;28;20040;-77
2021/05/01 02:44:47;;;;;;;26.67;22.92;;;3.30;82.50;;;;;;5059348;28;20455;-76
2021/05/01 02:47:13;;;;;;;27.02;21.75;;;3.30;82.50;;;;;;5061966;28;20045;-76
2021/05/01 02:49:39;;;;;;;30.38;24.08;;;3.30;82.50;;;;;;5063247;28;20463;-79
2021/05/01 02:52:05;;;;;;;27.40;23.98;;;3.20;82.60;;;;;;5065212;28;20032;-74
2021/05/01 02:54:30;;;;;;;29.63;24.17;;;3.20;82.60;;;;;;5057491;28;20078;-75
2021/05/01 02:56:56;;;;;;;32.75;26.13;;;3.20;82.70;;;;;;5059923;28;20033;-77
2021/05/01 02:59:22;;;;;;;30.50;25.38;;;3.20;82.70;;;;;;5071661;28;20032;-77
2021/05/01 03:01:47;;;;;;;29.02;24.25;;;3.10;82.70;;;;;;5069284;28;20025;-78
2021/05/01 03:04:13;;;;;;;32.10;24.77;;;3.10;82.80;;;;;;5061021;28;20036;-78
2021/05/01 03:06:39;;;;;;;31.90;23.83;;;3.10;83.00;;;;;;5063459;28;20033;-75
2021/05/01 03:09:05;;;;;;;28.42;23.20;;;3.10;83.20;;;;;;5056623;28;20374;-78
2021/05/01 03:11:31;;;;;;;28.15;24.73;;;3.00;83.10;;;;;;5046350;28;20052;-77
2021/05/01 03:13:57;;;;;;;29.55;24.35;;;3.00;83.10;;;;;;5061646;28;20025;-75
2021/05/01 03:16:22;;;;;;;29.70;23.88;;;2.90;83.20;;;;;;5062419;28;20032;-75
2021/05/01 03:18:48;;;;;;;28.65;24.60;;;3.00;83.10;;;;;;5048311;28;20051;-75
2021/05/01 03:21:13;;;;;;;27.25;23.65;;;2.90;82.80;;;;;;5040500;28;20040;-75
2021/05/01 03:23:39;;;;;;;27.88;23.02;;;2.90;82.60;;;;;;5043152;28;20437;-75
2021/05/01 03:26:05;;;;;;;26.88;23.92;;;2.90;82.60;;;;;;5045033;28;20064;-77
2021/05/01 03:28:31;;;;;;;26.98;23.83;;;2.90;82.70;;;;;;5062899;28;20032;-75
2021/05/01 03:30:56;;;;;;;31.55;24.25;;;2.90;82.70;;;;;;5064517;28;20044;-76
2021/05/01 03:33:22;;;;;;;28.92;25.02;;;2.90;82.70;;;;;;5058510;28;20033;-79
2021/05/01 03:35:48;;;;;;;30.67;26.27;;;2.80;82.70;;;;;;5059539;28;20455;-75
2021/05/01 03:38:13;;;;;;;31.77;25.30;;;2.80;83.00;;;;;;5058800;28;20044;-76
2021/05/01 03:40:39;;;;;;;30.35;25.00;;;2.80;83.20;;;;;;5060979;28;20044;-75
2021/05/01 03:43:05;;;;;;;34.53;26.75;;;2.80;83.20;;;;;;5059649;28;20509;-76
2021/05/01 03:45:31;;;;;;;33.80;26.52;;;2.80;83.30;;;;;;5061869;28;20036;-76
2021/05/01 03:47:57;;;;;;;26.00;23.20;;;2.80;83.50;;;;;;5063188;28;20059;-76
2021/05/01 03:50:23;;;;;;;31.50;25.17;;;2.80;83.60;;;;;;5063622;28;20507;-77
2021/05/01 03:52:48;;;;;;;26.48;23.25;;;2.80;83.50;;;;;;5058941;28;20060;-77
2021/05/01 03:55:14;;;;;;;31.00;24.17;;;2.70;83.20;;;;;;5046745;28;20033;-76
2021/05/01 03:57:41;;;;;;;29.98;22.92;;;2.70;82.90;;;;;;5068952;28;20453;-76
2021/05/01 04:00:07;;;;;;;32.50;25.92;;;2.70;83.00;;;;;;5065641;28;20522;-76
2021/05/01 04:02:33;;;;;;;31.15;25.60;;;2.60;83.00;;;;;;5050332;28;20053;-75
2021/05/01 04:04:59;;;;;;;30.50;25.58;;;2.60;83.10;;;;;;5038579;28;20041;-76
2021/05/01 04:07:25;;;;;;;31.75;26.38;;;2.60;83.30;;;;;;5048733;28;20056;-75
2021/05/01 04:09:50;;;;;;;36.28;26.45;;;2.60;83.50;;;;;;5064025;28;20064;-76
2021/05/01 04:12:16;;;;;;;30.45;25.23;;;2.60;83.60;;;;;;5065286;28;20040;-75
2021/05/01 04:14:42;;;;;;;31.25;25.85;;;2.60;83.70;;;;;;5064666;28;20120;-76
2021/05/01 04:17:07;;;;;;;32.47;26.40;;;2.60;83.60;;;;;;5056771;28;20047;-76
2021/05/01 04:19:33;;;;;;;32.42;25.83;;;2.60;83.50;;;;;;5042395;28;20116;-79
2021/05/01 04:22:04;;;;;;;31.85;26.17;;;2.60;83.50;;;;;;5050302;28;20101;-76
2021/05/01 04:24:33;;;;;;;31.40;24.85;;;2.50;83.80;;;;;;5047610;28;20036;-76
2021/05/01 04:26:59;;;;;;;31.55;26.27;;;2.60;83.80;;;;;;5061696;28;20033;-76
2021/05/01 04:29:25;;;;;;;35.92;26.88;;;2.60;83.90;;;;;;5061205;28;20066;-76
2021/05/01 04:31:51;;;;;;;30.58;26.65;;;2.60;83.80;;;;;;5044384;28;20045;-75
2021/05/01 04:34:18;;;;;;;31.98;27.38;;;2.60;83.90;;;;;;5036425;28;20034;-76
2021/05/01 04:36:44;;;;;;;37.08;27.77;;;2.60;83.80;;;;;;5029357;28;20720;-76
2021/05/01 04:39:10;;;;;;;33.97;27.92;;;2.70;83.60;;;;;;5045000;28;20440;-75
2021/05/01 04:41:36;;;;;;;31.25;25.83;;;2.70;83.60;;;;;;5042102;28;20029;-76
2021/05/01 04:44:02;;;;;;;31.25;26.20;;;2.80;83.60;;;;;;5041427;28;20037;-77
2021/05/01 04:46:28;;;;;;;28.80;25.35;;;2.90;83.40;;;;;;5052038;28;20034;-79
2021/05/01 04:48:53;;;;;;;33.03;25.50;;;2.90;83.30;;;;;;5061037;28;20041;-81
2021/05/01 04:51:19;;;;;;;28.67;25.48;;;2.90;83.20;;;;;;5056375;28;20045;-77
2021/05/01 04:53:45;;;;;;;30.10;24.95;;;2.90;83.00;;;;;;5054520;28;20044;-82
2021/05/01 04:56:11;;;;;;;31.75;24.77;;;2.90;82.80;;;;;;5063330;28;20033;-74
2021/05/01 04:58:37;;;;;;;27.58;24.25;;;3.00;82.60;;;;;;5048991;28;20040;-76
2021/05/01 05:01:03;;;;;;;29.30;24.92;;;3.00;82.80;;;;;;5034599;28;20033;-75
2021/05/01 05:03:29;;;;;;;30.83;25.48;;;3.10;82.80;;;;;;5035811;28;20056;-76
2021/05/01 05:05:55;;;;;;;30.60;24.77;;;3.10;82.90;;;;;;5035991;28;20503;-76
2021/05/01 05:08:20;;;;;;;31.40;24.45;;;3.20;82.80;;;;;;5043313;28;20032;-76
2021/05/01 05:10:46;;;;;;;31.90;25.13;;;3.30;82.70;;;;;;5062521;28;20044;-76
2021/05/01 05:13:11;;;;;;;29.45;24.80;;;3.40;82.60;;;;;;5061672;28;20496;-75
2021/05/01 05:15:37;;;;;;;30.63;26.67;;;3.50;82.50;;;;;;5040565;28;20064;-75
2021/05/01 05:18:04;;;;;;;34.95;27.80;;;3.60;82.30;;;;;;5044060;28;20029;-76
2021/05/01 05:20:29;;;;;;;31.92;28.33;;;3.60;82.10;;;;;;5054568;28;20061;-78
2021/05/01 05:22:55;;;;;;;29.08;24.98;;;3.70;82.00;;;;;;5070686;28;20083;-76
2021/05/01 05:25:21;;;;;;;30.13;24.08;;;3.80;82.10;;;;;;5060506;28;20447;-78
2021/05/01 05:27:47;;;;;;;29.45;24.58;;;3.90;82.10;;;;;;5060605;28;20036;-76
2021/05/01 05:30:13;;;;;;;32.40;25.30;;;4.00;82.10;;;;;;5059146;28;20043;-77
2021/05/01 05:32:39;;;;;;;36.30;29.42;;;4.00;81.70;;;;;;5062031;28;20525;-78
2021/05/01 05:35:05;;;;;;;32.92;28.20;;;4.10;81.50;;;;;;5074070;28;20024;-80
2021/05/01 05:37:31;;;;;;;36.03;29.02;;;4.10;81.90;;;;;;5079821;28;20028;-81
2021/05/01 05:39:57;;;;;;;36.83;28.45;;;4.20;81.70;;;;;;5071456;28;20142;-81
2021/05/01 05:42:24;;;;;;;33.00;27.23;;;4.30;81.80;;;;;;5074392;28;20523;-78
2021/05/01 05:44:51;;;;;;;32.25;27.33;;;4.50;81.80;;;;;;5070365;28;20041;-77
2021/05/01 05:47:17;;;;;;;32.50;27.70;;;4.60;81.70;;;;;;5058278;28;20755;-78
2021/05/01 05:49:43;;;;;;;37.65;28.88;;;4.60;81.70;;;;;;5067265;28;20025;-77
2021/05/01 05:52:09;;;;;;;35.13;28.42;;;4.70;82.10;;;;;;5064856;28;20033;-77
2021/05/01 05:54:36;;;;;;;39.65;31.80;;;4.90;81.80;;;;;;5067973;28;20339;-77
2021/05/01 05:57:01;;;;;;;36.35;30.75;;;5.00;81.70;;;;;;5065260;28;20040;-76
2021/05/01 05:59:27;;;;;;;40.22;32.20;;;5.10;82.00;;;;;;5061627;28;20460;-78
2021/05/01 06:01:55;;;;;;;40.50;32.22;;;5.30;82.00;;;;;;5060761;28;20041;-78
2021/05/01 06:04:34;;;;;;;41.58;32.85;;;5.40;82.10;;;;;;5057158;28;20090;-77
2021/05/01 06:07:23;;;;;;;35.60;30.55;;;5.60;82.00;;;;;;5072597;28;20056;-77
2021/05/01 06:09:50;;;;;;;37.63;31.95;;;5.70;81.80;;;;;;5066389;28;20043;-76
2021/05/01 06:12:18;;;;;;;38.40;32.03;;;5.80;81.60;;;;;;5067547;28;20143;-80
2021/05/01 06:14:46;;;;;;;35.35;30.48;;;6.00;81.50;;;;;;5069944;28;20028;-77
2021/05/01 06:17:13;;;;;;;39.50;31.63;;;6.10;80.80;;;;;;5057510;28;20380;-77
2021/05/01 06:19:40;;;;;;;40.40;32.65;;;6.30;81.10;;;;;;5064533;28;20079;-76
2021/05/01 06:22:06;;;;;;;35.88;31.95;;;6.40;81.20;;;;;;5059081;28;20028;-78
2021/05/01 06:24:31;;;;;;;36.15;30.35;;;6.60;81.20;;;;;;5061574;28;20033;-78
2021/05/01 06:26:57;;;;;;;36.97;31.02;;;6.70;80.50;;;;;;5057406;28;20037;-80
2021/05/01 06:29:25;;;;;;;36.65;30.02;;;6.80;80.30;;;;;;5066899;28;20036;-77
2021/05/01 06:31:51;;;;;;;36.25;30.20;;;7.00;80.30;;;;;;5062991;28;20052;-77
2021/05/01 06:34:16;;;;;;;39.08;31.55;;;7.10;79.90;;;;;;5061678;28;20369;-77
2021/05/01 06:36:42;;;;;;;35.35;30.23;;;7.30;79.80;;;;;;5057522;28;20044;-77
2021/05/01 06:39:09;;;;;;;35.28;30.33;;;7.50;79.70;;;;;;5060793;28;20044;-77
2021/05/01 06:41:42;;;;;;;33.60;29.77;;;7.60;79.10;;;;;;5065088;28;20491;-75
2021/05/01 06:44:14;;;;;;;35.85;30.63;;;7.70;78.80;;;;;;5064879;28;20059;-76
2021/05/01 06:46:42;;;;;;;36.97;30.38;;;7.90;78.10;;;;;;5065444;28;20094;-76
2021/05/01 06:49:17;;;;;;;34.22;28.92;;;8.00;78.00;;;;;;5060232;28;20036;-76
2021/05/01 06:51:44;;;;;;;38.47;30.60;;;8.10;77.50;;;;;;5061332;28;20067;-77
2021/05/01 06:54:11;;;;;;;35.92;30.63;;;8.20;77.00;;;;;;5054297;28;20136;-80
2021/05/01 06:56:43;;;;;;;32.53;27.80;;;8.40;77.40;;;;;;5058746;28;20128;-75
2021/05/01 06:59:09;;;;;;;33.58;26.92;;;8.60;76.50;;;;;;5061091;28;20029;-75
2021/05/01 07:01:40;;;;;;;32.78;26.90;;;8.80;75.50;;;;;;5058703;28;20033;-75
2021/05/01 07:04:08;;;;;;;32.75;27.30;;;8.80;74.90;;;;;;5070832;28;20683;-76
2021/05/01 07:06:36;;;;;;;34.10;26.88;;;9.00;74.80;;;;;;5058480;28;20108;-76
2021/05/01 07:09:01;;;;;;;30.73;26.65;;;9.10;74.20;;;;;;5055797;28;20033;-74
2021/05/01 07:11:28;;;;;;;29.63;25.67;;;9.30;74.20;;;;;;5059996;28;20377;-76
2021/05/01 07:13:54;;;;;;;30.77;26.48;;;9.40;73.60;;;;;;5059591;28;20388;-78
2021/05/01 07:16:21;;;;;;;30.13;25.85;;;9.50;74.10;;;;;;5055251;28;20047;-80
2021/05/01 07:18:47;;;;;;;31.48;25.05;;;9.70;72.80;;;;;;5059578;28;20076;-75
2021/05/01 07:21:14;;;;;;;33.00;27.20;;;9.80;73.00;;;;;;5061140;28;20135;-77
2021/05/01 07:23:40;;;;;;;35.13;27.27;;;10.00;72.50;;;;;;5060914;28;20024;-75
2021/05/01 07:26:08;;;;;;;33.67;28.10;;;10.10;72.80;;;;;;5059412;28;20119;-77
2021/05/01 07:28:37;;;;;;;29.73;25.85;;;10.30;72.50;;;;;;5051796;28;20036;-76
2021/05/01 07:31:06;;;;;;;25.67;22.98;;;10.40;70.50;;;;;;5046431;28;20037;-78
2021/05/01 07:33:39;;;;;;;21.27;19.08;;;10.40;71.50;;;;;;5040433;28;20166;-69
2021/05/01 07:36:33;;;;;;;27.95;24.25;;;10.60;70.50;;;;;;5059278;28;20033;-69
2021/05/01 07:39:00;;;;;;;23.70;21.15;;;10.60;70.70;;;;;;5045125;28;20032;-68
2021/05/01 07:41:27;;;;;;;23.25;20.75;;;10.80;68.60;;;;;;5046504;28;20087;-71
2021/05/01 07:43:54;;;;;;;25.33;20.52;;;10.80;68.60;;;;;;5057166;28;20041;-75
2021/05/01 07:46:27;;;;;;;24.50;19.20;;;10.60;69.70;;;;;;5054295;28;20041;-70
2021/05/01 07:48:53;;;;;;;24.33;20.88;;;10.80;68.70;;;;;;5035767;28;20425;-70
2021/05/01 07:51:19;;;;;;;25.38;22.27;;;11.00;67.10;;;;;;5061936;28;20479;-70
2021/05/01 07:53:45;;;;;;;24.42;21.63;;;10.70;68.40;;;;;;5059963;28;20041;-70
2021/05/01 07:56:11;;;;;;;25.70;23.08;;;10.40;69.70;;;;;;5061523;28;20668;-70
2021/05/01 07:58:36;;;;;;;26.77;23.08;;;10.60;70.10;;;;;;5062217;28;20343;-70
2021/05/01 08:01:02;;;;;;;26.02;22.85;;;10.60;69.10;;;;;;5056631;28;20031;-72
2021/05/01 08:03:28;;;;;;;26.85;22.60;;;11.00;69.10;;;;;;5045318;28;20059;-71
2021/05/01 08:05:54;;;;;;;26.38;21.67;;;11.30;68.80;;;;;;5040790;28;20033;-73
2021/05/01 08:08:20;;;;;;;24.60;20.63;;;11.60;65.80;;;;;;5042989;28;20384;-69
2021/05/01 08:10:45;;;;;;;24.35;20.77;;;11.90;65.40;;;;;;5043070;28;20325;-69
2021/05/01 08:13:11;;;;;;;24.83;18.17;;;12.10;62.60;;;;;;5040661;28;20050;-70
2021/05/01 08:15:40;;;;;;;23.67;19.38;;;12.30;61.80;;;;;;5039872;28;20067;-69
2021/05/01 08:18:06;;;;;;;21.83;17.40;;;12.10;62.60;;;;;;5042522;28;20029;-70
2021/05/01 08:20:33;;;;;;;20.02;17.75;;;12.00;63.20;;;;;;5039211;28;20534;-69
2021/05/01 08:22:59;;;;;;;22.60;18.70;;;12.10;62.90;;;;;;5043987;28;20065;-71
2021/05/01 08:25:25;;;;;;;25.92;20.65;;;12.00;62.00;;;;;;5037870;28;20100;-69
2021/05/01 08:27:52;;;;;;;22.08;19.48;;;11.30;63.30;;;;;;5035398;28;20374;-69
2021/05/01 08:30:18;;;;;;;21.27;17.88;;;11.20;64.40;;;;;;5037608;28;20045;-68
2021/05/01 08:32:45;;;;;;;20.08;17.70;;;11.10;63.70;;;;;;5041382;28;20094;-69
2021/05/01 08:35:12;;;;;;;19.58;16.25;;;11.30;63.20;;;;;;5033525;28;20100;-69
2021/05/01 08:37:38;;;;;;;21.42;18.50;;;11.70;60.30;;;;;;5034356;28;20485;-70
2021/05/01 08:40:06;;;;;;;21.38;17.70;;;11.90;60.20;;;;;;5031419;28;20130;-70
2021/05/01 08:42:32;;;;;;;23.95;20.35;;;12.10;60.50;;;;;;5037420;28;20480;-69
2021/05/01 08:45:05;;;;;;;20.75;18.58;;;12.40;61.20;;;;;;5037318;28;20056;-68
2021/05/01 08:47:34;;;;;;;20.80;17.73;;;12.50;60.20;;;;;;5042822;28;20384;-69
2021/05/01 08:50:25;;;;;;;20.20;17.92;;;12.30;58.40;;;;;;5048314;28;20072;-69
2021/05/01 08:52:55;;;;;;;22.98;17.60;;;11.90;58.90;;;;;;5074553;28;20028;-73
2021/05/01 08:55:28;;;;;;;21.25;18.80;;;11.90;59.10;;;;;;5057517;28;20259;-69
2021/05/01 08:57:54;;;;;;;20.67;18.30;;;12.20;58.30;;;;;;5061630;28;20045;-72
2021/05/01 09:00:22;;;;;;;21.95;19.60;;;12.50;58.20;;;;;;5040847;28;20043;-69
2021/05/01 09:02:49;;;;;;;22.20;19.65;;;12.10;59.00;;;;;;5052699;28;20107;-70
2021/05/01 09:05:15;;;;;;;22.08;19.02;;;12.10;59.40;;;;;;5050908;28;20500;-70
2021/05/01 09:07:44;;;;;;;21.20;18.95;;;12.20;58.80;;;;;;5038211;28;20176;-72
2021/05/01 09:10:11;;;;;;;22.13;19.75;;;12.20;59.20;;;;;;5050432;28;20570;-73
2021/05/01 09:12:48;;;;;;;21.73;19.23;;;12.00;59.60;;;;;;5049203;28;20064;-69
2021/05/01 09:15:31;;;;;;;22.38;18.20;;;12.10;59.30;;;;;;5052016;28;20500;-70
2021/05/01 09:17:59;;;;;;;20.48;18.02;;;12.10;59.80;;;;;;5045676;28;20028;-70
2021/05/01 09:20:25;;;;;;;21.85;19.00;;;12.20;58.60;;;;;;5037357;28;20025;-69
2021/05/01 09:22:59;;;;;;;22.90;19.00;;;12.50;57.70;;;;;;5055786;28;20080;-69
2021/05/01 09:25:27;;;;;;;21.52;19.40;;;12.70;57.20;;;;;;5038866;28;20025;-71
2021/05/01 09:28:01;;;;;;;20.98;18.75;;;13.20;57.50;;;;;;5033005;28;20045;-70
2021/05/01 09:30:29;;;;;;;51.55;22.02;;;13.10;56.70;;;;;;5057435;28;20131;-72
2021/05/01 09:33:32;;;;;;;20.35;17.83;;;13.00;57.20;;;;;;5050558;28;20049;-70
2021/05/01 09:36:02;;;;;;;22.23;17.60;;;13.30;55.80;;;;;;5046979;28;20040;-69
2021/05/01 09:38:38;;;;;;;18.30;16.13;;;13.70;55.10;;;;;;5050702;28;20047;-67
2021/05/01 09:41:23;;;;;;;18.35;16.45;;;13.70;53.50;;;;;;5045298;28;20606;-71
2021/05/01 09:44:10;;;;;;;19.55;16.35;;;14.10;53.00;;;;;;5033175;28;20936;-71
2021/05/01 09:46:39;;;;;;;17.33;15.38;;;14.30;51.60;;;;;;5038660;28;20079;-74
2021/05/01 09:49:05;;;;;;;17.98;15.45;;;13.90;51.80;;;;;;5048827;28;20045;-71
2021/05/01 09:51:49;;;;;;;19.27;15.57;;;13.70;52.70;;;;;;5048141;28;20476;-70
2021/05/01 09:54:18;;;;;;;18.45;15.48;;;13.50;49.30;;;;;;5048253;28;20043;-71
2021/05/01 09:56:45;;;;;;;16.52;14.60;;;13.10;52.00;;;;;;5064546;28;20487;-71
2021/05/01 09:59:12;;;;;;;20.42;15.88;;;13.20;51.80;;;;;;5066706;28;20083;-70
2021/05/01 10:01:38;;;;;;;21.20;16.10;;;13.10;52.10;;;;;;5066090;28;20033;-70
2021/05/01 10:04:14;;;;;;;19.40;16.00;;;12.90;53.10;;;;;;5068214;28;20112;-69
2021/05/01 10:06:51;;;;;;;18.27;16.08;;;12.40;53.90;;;;;;5060279;28;20764;-70
2021/05/01 10:09:22;;;;;;;17.15;15.35;;;12.30;54.60;;;;;;5067119;28;20048;-70
2021/05/01 10:11:50;;;;;;;17.05;13.90;;;12.30;54.10;;;;;;5059869;28;20045;-71
2021/05/01 10:14:17;;;;;;;16.20;14.23;;;12.60;53.10;;;;;;5066656;28;20063;-71
2021/05/01 10:16:54;;;;;;;19.98;14.27;;;13.20;52.40;;;;;;5063740;28;20024;-70
2021/05/01 10:19:19;;;;;;;18.40;15.27;;;13.80;50.60;;;;;;5067610;28;20028;-71
2021/05/01 10:21:47;;;;;;;17.25;14.85;;;14.00;49.50;;;;;;5053705;28;20072;-70
2021/05/01 10:24:14;;;;;;;19.33;15.80;;;14.10;48.30;;;;;;5063034;28;20025;-70
2021/05/01 10:26:44;;;;;;;15.15;13.57;;;14.20;50.20;;;;;;5063381;28;20116;-70
2021/05/01 10:29:28;;;;;;;17.13;13.52;;;14.40;47.40;;;;;;5060351;28;20046;-70
2021/05/01 10:31:55;;;;;;;15.90;13.20;;;14.60;46.20;;;;;;5060822;28;20361;-71
2021/05/01 10:34:26;;;;;;;17.42;11.35;;;14.80;45.60;;;;;;5065381;28;20063;-72
2021/05/01 10:36:59;;;;;;;16.13;12.93;;;14.50;44.30;;;;;;5065242;28;20047;-70
2021/05/01 10:39:25;;;;;;;17.67;13.57;;;14.10;45.30;;;;;;5039689;28;20091;-72
2021/05/01 10:41:59;;;;;;;16.40;14.05;;;14.20;45.60;;;;;;5041060;28;20041;-70
2021/05/01 10:44:26;;;;;;;16.67;14.65;;;13.60;48.20;;;;;;5039000;28;20039;-70
2021/05/01 10:47:10;;;;;;;18.83;14.80;;;13.70;49.90;;;;;;5036970;28;20037;-69
2021/05/01 10:49:36;;;;;;;13.23;11.82;;;13.60;48.30;;;;;;5059726;28;20028;-70
2021/05/01 10:52:13;;;;;;;14.80;11.00;;;13.60;45.70;;;;;;5055365;28;20463;-74
2021/05/01 10:54:59;;;;;;;15.95;11.98;;;13.90;45.30;;;;;;5045657;28;20463;-69
2021/05/01 10:57:25;;;;;;;16.25;12.85;;;13.70;44.30;;;;;;5062925;28;20033;-70
2021/05/01 11:00:11;;;;;;;15.15;12.57;;;13.50;45.20;;;;;;5064151;28;20035;-70
2021/05/01 11:02:42;;;;;;;16.50;13.55;;;13.50;47.00;;;;;;5049551;28;20040;-71
2021/05/01 11:05:17;;;;;;;17.00;14.38;;;13.20;48.10;;;;;;5059500;28;20029;-71
2021/05/01 11:08:01;;;;;;;18.70;15.35;;;13.20;49.90;;;;;;5060527;28;20078;-72
2021/05/01 11:10:29;;;;;;;18.63;15.73;;;12.80;50.30;;;;;;5055300;28;20040;-73
2021/05/01 11:12:57;;;;;;;21.83;17.25;;;12.50;52.80;;;;;;5045726;28;20090;-70
2021/05/01 11:15:24;;;;;;;20.88;18.15;;;12.20;56.50;;;;;;5060144;28;21467;-69
2021/05/01 11:18:05;;;;;;;20.73;18.52;;;12.10;57.90;;;;;;5057947;28;20106;-68
2021/05/01 11:20:31;;;;;;;20.50;17.58;;;12.20;59.20;;;;;;5058524;28;20062;-68
2021/05/01 11:22:57;;;;;;;20.20;17.98;;;12.30;57.80;;;;;;5056019;28;20078;-71
2021/05/01 11:25:23;;;;;;;22.42;18.27;;;12.20;57.70;;;;;;5048919;28;20048;-74
2021/05/01 11:27:51;;;;;;;20.10;18.00;;;12.50;58.80;;;;;;5048231;28;20148;-70
2021/05/01 11:30:20;;;;;;;19.52;17.33;;;13.10;57.50;;;;;;5030954;28;20049;-69
2021/05/01 11:32:47;;;;;;;18.92;16.80;;;13.50;53.60;;;;;;5038685;28;20098;-69
2021/05/01 11:35:16;;;;;;;18.25;16.00;;;14.10;51.40;;;;;;5032103;28;20491;-69
2021/05/01 11:37:43;;;;;;;16.73;14.90;;;14.50;48.20;;;;;;5051922;28;20033;-70
2021/05/01 11:40:11;;;;;;;17.70;15.10;;;14.80;45.50;;;;;;5035177;28;20049;-70
2021/05/01 11:42:39;;;;;;;17.52;14.82;;;14.80;44.40;;;;;;5037786;28;20045;-69
2021/05/01 11:45:13;;;;;;;19.55;15.48;;;15.00;44.20;;;;;;5037244;28;20564;-70
2021/05/01 11:47:43;;;;;;;18.40;16.38;;;15.20;45.50;;;;;;5035735;28;20397;-70
2021/05/01 11:50:10;;;;;;;17.42;15.35;;;15.40;45.60;;;;;;5038337;28;20134;-70
2021/05/01 11:53:13;;;;;;;19.20;16.92;;;15.20;45.10;;;;;;5045489;28;20037;-73
2021/05/01 11:56:00;;;;;;;17.48;14.77;;;14.80;46.80;;;;;;5058451;28;20029;-72
2021/05/01 11:58:31;;;;;;;14.90;12.18;;;14.00;46.60;;;;;;5044312;28;20943;-70
2021/05/01 12:01:14;;;;;;;14.35;11.70;;;13.60;45.20;;;;;;5037553;28;20029;-69
2021/05/01 12:03:41;;;;;;;16.23;11.90;;;13.30;45.20;;;;;;5056288;28;20033;-70
2021/05/01 12:06:16;;;;;;;14.30;12.75;;;13.10;46.50;;;;;;5056488;28;20047;-70
2021/05/01 12:08:42;;;;;;;14.20;11.30;;;13.10;46.90;;;;;;5054759;28;20033;-70
2021/05/01 12:11:09;;;;;;;14.60;11.80;;;13.40;45.30;;;;;;5061915;28;20537;-70
2021/05/01 12:13:35;;;;;;;13.40;10.50;;;13.90;45.50;;;;;;5039648;28;20037;-70
2021/05/01 12:16:03;;;;;;;14.10;10.05;;;14.00;44.20;;;;;;5037356;28;20035;-72
2021/05/01 12:18:43;;;;;;;11.93;9.40;;;13.60;45.20;;;;;;5053168;28;20037;-70
2021/05/01 12:21:18;;;;;;;13.35;9.57;;;13.70;45.30;;;;;;5030424;28;20033;-69
2021/05/01 12:23:52;;;;;;;9.90;7.80;;;14.10;45.00;;;;;;5039190;28;20108;-69
2021/05/01 12:26:33;;;;;;;10.38;7.80;;;14.50;44.00;;;;;;5043239;28;20033;-70
2021/05/01 12:29:18;;;;;;;16.83;8.77;;;14.90;41.60;;;;;;5035777;28;20044;-70
2021/05/01 12:31:44;;;;;;;;;;;14.80;40.60;;;;;;5038787;28;20043;-70
2021/05/01 12:34:10;;;;;;;11.30;8.00;;;15.10;41.70;;;;;;5041397;28;20360;-70
2021/05/01 12:36:44;;;;;;;9.82;8.32;;;15.30;40.60;;;;;;5032469;28;20037;-70
2021/05/01 12:39:12;;;;;;;12.18;7.63;;;15.60;40.50;;;;;;5036984;28;20029;-71